sensor_id;sensor_type;location;lat;lon;timestamp;temperature;humidity
46758;DHT22;32509;47.750;-3.396;2023-06-10T00:01:42;20.40;99.90
46758;DHT22;32509;47.750;-3.396;2023-06-10T00:04:08;20.50;99.90
46758;DHT22;32509;47.750;-3.396;2023-06-10T00:06:34;20.50;99.90
46758;DHT22;32509;47.750;-3.396;2023-06-10T00:09:07;20.50;99.90
46758;DHT22;32509;47.750;-3.396;2023-06-10T00:11:37;20.50;99.90
46758;DHT22;32509;47.750;-3.396;2023-06-10T00:14:03;20.50;99.90
46758;DHT22;32509;47.750;-3.396;2023-06-10T00:16:29;20.50;99.90
46758;DHT22;32509;47.750;-3.396;2023-06-10T00:18:56;20.50;99.90
46758;DHT22;32509;47.750;-3.396;2023-06-10T00:21:26;20.50;99.90
46758;DHT22;32509;47.750;-3.396;2023-06-10T00:23:52;20.50;99.90
46758;DHT22;32509;47.750;-3.396;2023-06-10T00:26:18;20.50;99.90
46758;DHT22;32509;47.750;-3.396;2023-06-10T00:28:43;20.50;99.90
46758;DHT22;32509;47.750;-3.396;2023-06-10T00:31:10;20.50;99.90
46758;DHT22;32509;47.750;-3.396;2023-06-10T00:33:36;20.50;99.90
46758;DHT22;32509;47.750;-3.396;2023-06-10T00:36:02;20.50;99.90
46758;DHT22;32509;47.750;-3.396;2023-06-10T00:38:28;20.50;99.90
46758;DHT22;32509;47.750;-3.396;2023-06-10T00:40:54;20.50;99.90
46758;DHT22;32509;47.750;-3.396;2023-06-10T00:43:20;20.50;99.90
46758;DHT22;32509;47.750;-3.396;2023-06-10T00:45:45;20.50;99.90
46758;DHT22;32509;47.750;-3.396;2023-06-10T00:48:11;20.50;99.90
46758;DHT22;32509;47.750;-3.396;2023-06-10T00:50:37;20.50;99.90
46758;DHT22;32509;47.750;-3.396;2023-06-10T00:53:06;20.50;99.90
46758;DHT22;32509;47.750;-3.396;2023-06-10T00:55:32;20.50;99.90
46758;DHT22;32509;47.750;-3.396;2023-06-10T00:57:58;20.50;99.90
46758;DHT22;32509;47.750;-3.396;2023-06-10T01:00:25;20.50;99.90
46758;DHT22;32509;47.750;-3.396;2023-06-10T01:02:51;20.50;99.90
46758;DHT22;32509;47.750;-3.396;2023-06-10T01:05:21;20.50;99.90
46758;DHT22;32509;47.750;-3.396;2023-06-10T01:07:52;20.50;99.90
46758;DHT22;32509;47.750;-3.396;2023-06-10T01:10:29;20.50;99.90
46758;DHT22;32509;47.750;-3.396;2023-06-10T01:12:59;20.50;99.90
46758;DHT22;32509;47.750;-3.396;2023-06-10T01:15:31;20.50;99.90
46758;DHT22;32509;47.750;-3.396;2023-06-10T01:17:59;20.50;99.90
46758;DHT22;32509;47.750;-3.396;2023-06-10T01:20:27;20.50;99.90
46758;DHT22;32509;47.750;-3.396;2023-06-10T01:22:57;20.50;99.90
46758;DHT22;32509;47.750;-3.396;2023-06-10T01:25:24;20.50;99.90
46758;DHT22;32509;47.750;-3.396;2023-06-10T01:33:25;20.40;99.90
46758;DHT22;32509;47.750;-3.396;2023-06-10T01:35:53;20.50;99.90
46758;DHT22;32509;47.750;-3.396;2023-06-10T01:38:19;20.50;99.90
46758;DHT22;32509;47.750;-3.396;2023-06-10T01:40:48;20.50;99.90
46758;DHT22;32509;47.750;-3.396;2023-06-10T01:43:13;20.40;99.90
46758;DHT22;32509;47.750;-3.396;2023-06-10T01:45:39;20.50;99.90
46758;DHT22;32509;47.750;-3.396;2023-06-10T01:48:05;20.50;99.90
46758;DHT22;32509;47.750;-3.396;2023-06-10T01:50:31;20.50;99.90
46758;DHT22;32509;47.750;-3.396;2023-06-10T01:52:58;20.50;99.90
46758;DHT22;32509;47.750;-3.396;2023-06-10T01:55:23;20.50;99.90
46758;DHT22;32509;47.750;-3.396;2023-06-10T01:57:49;20.50;99.90
46758;DHT22;32509;47.750;-3.396;2023-06-10T02:00:15;20.40;99.90
46758;DHT22;32509;47.750;-3.396;2023-06-10T02:02:41;20.40;99.90
46758;DHT22;32509;47.750;-3.396;2023-06-10T02:05:07;20.40;99.90
46758;DHT22;32509;47.750;-3.396;2023-06-10T02:07:33;20.40;99.90
46758;DHT22;32509;47.750;-3.396;2023-06-10T02:09:58;20.40;99.90
46758;DHT22;32509;47.750;-3.396;2023-06-10T02:12:24;20.40;99.90
46758;DHT22;32509;47.750;-3.396;2023-06-10T02:14:50;20.40;99.90
46758;DHT22;32509;47.750;-3.396;2023-06-10T02:17:16;20.40;99.90
46758;DHT22;32509;47.750;-3.396;2023-06-10T02:19:42;20.40;99.90
46758;DHT22;32509;47.750;-3.396;2023-06-10T02:22:09;20.40;99.90
46758;DHT22;32509;47.750;-3.396;2023-06-10T02:24:36;20.40;99.90
46758;DHT22;32509;47.750;-3.396;2023-06-10T02:27:04;20.40;99.90
46758;DHT22;32509;47.750;-3.396;2023-06-10T02:29:33;20.40;99.90
46758;DHT22;32509;47.750;-3.396;2023-06-10T02:32:01;20.40;99.90
46758;DHT22;32509;47.750;-3.396;2023-06-10T02:34:27;20.40;99.90
46758;DHT22;32509;47.750;-3.396;2023-06-10T02:36:54;20.40;99.90
46758;DHT22;32509;47.750;-3.396;2023-06-10T02:39:20;20.40;99.90
46758;DHT22;32509;47.750;-3.396;2023-06-10T02:41:46;20.40;99.90
46758;DHT22;32509;47.750;-3.396;2023-06-10T02:44:11;20.30;99.90
46758;DHT22;32509;47.750;-3.396;2023-06-10T02:46:37;20.30;99.90
46758;DHT22;32509;47.750;-3.396;2023-06-10T02:49:03;20.30;99.90
46758;DHT22;32509;47.750;-3.396;2023-06-10T02:51:29;20.30;99.90
46758;DHT22;32509;47.750;-3.396;2023-06-10T02:53:54;20.30;99.90
46758;DHT22;32509;47.750;-3.396;2023-06-10T02:56:20;20.40;99.90
46758;DHT22;32509;47.750;-3.396;2023-06-10T02:58:47;20.30;99.90
46758;DHT22;32509;47.750;-3.396;2023-06-10T03:01:14;20.30;99.90
46758;DHT22;32509;47.750;-3.396;2023-06-10T03:03:40;20.30;99.90
46758;DHT22;32509;47.750;-3.396;2023-06-10T03:06:11;20.30;99.90
46758;DHT22;32509;47.750;-3.396;2023-06-10T03:08:38;20.30;99.90
46758;DHT22;32509;47.750;-3.396;2023-06-10T03:11:04;20.30;99.90
46758;DHT22;32509;47.750;-3.396;2023-06-10T03:13:29;20.20;99.90
46758;DHT22;32509;47.750;-3.396;2023-06-10T03:15:55;20.30;99.90
46758;DHT22;32509;47.750;-3.396;2023-06-10T03:18:25;20.30;99.90
46758;DHT22;32509;47.750;-3.396;2023-06-10T03:20:51;20.30;99.90
46758;DHT22;32509;47.750;-3.396;2023-06-10T03:23:18;20.20;99.90
46758;DHT22;32509;47.750;-3.396;2023-06-10T03:25:44;20.20;99.90
46758;DHT22;32509;47.750;-3.396;2023-06-10T03:28:11;20.20;99.90
46758;DHT22;32509;47.750;-3.396;2023-06-10T03:30:36;20.20;99.90
46758;DHT22;32509;47.750;-3.396;2023-06-10T03:33:02;20.20;99.90
46758;DHT22;32509;47.750;-3.396;2023-06-10T03:35:29;20.20;99.90
46758;DHT22;32509;47.750;-3.396;2023-06-10T03:37:55;20.20;99.90
46758;DHT22;32509;47.750;-3.396;2023-06-10T03:40:20;20.20;99.90
46758;DHT22;32509;47.750;-3.396;2023-06-10T03:42:46;20.20;99.90
46758;DHT22;32509;47.750;-3.396;2023-06-10T03:45:12;20.20;99.90
46758;DHT22;32509;47.750;-3.396;2023-06-10T03:47:38;20.20;99.90
46758;DHT22;32509;47.750;-3.396;2023-06-10T03:50:07;20.10;99.90
46758;DHT22;32509;47.750;-3.396;2023-06-10T03:52:34;20.10;99.90
46758;DHT22;32509;47.750;-3.396;2023-06-10T03:55:00;20.20;99.90
46758;DHT22;32509;47.750;-3.396;2023-06-10T03:57:26;20.20;99.90
46758;DHT22;32509;47.750;-3.396;2023-06-10T03:59:51;20.10;99.90
46758;DHT22;32509;47.750;-3.396;2023-06-10T04:02:17;20.10;99.90
46758;DHT22;32509;47.750;-3.396;2023-06-10T04:04:43;20.10;99.90
46758;DHT22;32509;47.750;-3.396;2023-06-10T04:07:09;20.10;99.90
46758;DHT22;32509;47.750;-3.396;2023-06-10T04:09:35;20.10;99.90
46758;DHT22;32509;47.750;-3.396;2023-06-10T04:12:04;20.10;99.90
46758;DHT22;32509;47.750;-3.396;2023-06-10T04:14:34;20.10;99.90
46758;DHT22;32509;47.750;-3.396;2023-06-10T04:17:01;20.10;99.90
46758;DHT22;32509;47.750;-3.396;2023-06-10T04:19:27;20.10;99.90
46758;DHT22;32509;47.750;-3.396;2023-06-10T04:21:54;20.10;99.90
46758;DHT22;32509;47.750;-3.396;2023-06-10T04:24:19;20.10;99.90
46758;DHT22;32509;47.750;-3.396;2023-06-10T04:26:45;20.10;99.90
46758;DHT22;32509;47.750;-3.396;2023-06-10T04:29:11;20.10;99.90
46758;DHT22;32509;47.750;-3.396;2023-06-10T04:31:37;20.10;99.90
46758;DHT22;32509;47.750;-3.396;2023-06-10T04:34:03;20.10;99.90
46758;DHT22;32509;47.750;-3.396;2023-06-10T04:36:29;20.10;99.90
46758;DHT22;32509;47.750;-3.396;2023-06-10T04:38:55;20.10;99.90
46758;DHT22;32509;47.750;-3.396;2023-06-10T04:41:21;20.10;99.90
46758;DHT22;32509;47.750;-3.396;2023-06-10T04:43:47;20.00;99.90
46758;DHT22;32509;47.750;-3.396;2023-06-10T04:46:13;20.00;99.90
46758;DHT22;32509;47.750;-3.396;2023-06-10T04:48:39;20.00;99.90
46758;DHT22;32509;47.750;-3.396;2023-06-10T04:51:05;20.00;99.90
46758;DHT22;32509;47.750;-3.396;2023-06-10T04:53:31;20.00;99.90
46758;DHT22;32509;47.750;-3.396;2023-06-10T04:55:57;20.00;99.90
46758;DHT22;32509;47.750;-3.396;2023-06-10T04:58:23;19.90;99.90
46758;DHT22;32509;47.750;-3.396;2023-06-10T05:00:49;20.00;99.90
46758;DHT22;32509;47.750;-3.396;2023-06-10T05:03:15;20.00;99.90
46758;DHT22;32509;47.750;-3.396;2023-06-10T05:05:41;19.90;99.90
46758;DHT22;32509;47.750;-3.396;2023-06-10T05:08:07;20.00;99.90
46758;DHT22;32509;47.750;-3.396;2023-06-10T05:10:32;19.90;99.90
46758;DHT22;32509;47.750;-3.396;2023-06-10T05:13:00;19.90;99.90
46758;DHT22;32509;47.750;-3.396;2023-06-10T05:15:25;19.90;99.90
46758;DHT22;32509;47.750;-3.396;2023-06-10T05:17:51;20.00;99.90
46758;DHT22;32509;47.750;-3.396;2023-06-10T05:20:18;19.90;99.90
46758;DHT22;32509;47.750;-3.396;2023-06-10T05:22:44;19.90;99.90
46758;DHT22;32509;47.750;-3.396;2023-06-10T05:25:10;20.00;99.90
46758;DHT22;32509;47.750;-3.396;2023-06-10T05:27:36;19.90;99.90
46758;DHT22;32509;47.750;-3.396;2023-06-10T05:30:02;19.90;99.90
46758;DHT22;32509;47.750;-3.396;2023-06-10T05:32:28;20.00;99.90
46758;DHT22;32509;47.750;-3.396;2023-06-10T05:34:55;20.00;99.90
46758;DHT22;32509;47.750;-3.396;2023-06-10T05:37:20;20.00;99.90
46758;DHT22;32509;47.750;-3.396;2023-06-10T05:39:46;20.00;99.90
46758;DHT22;32509;47.750;-3.396;2023-06-10T05:42:12;20.00;99.90
46758;DHT22;32509;47.750;-3.396;2023-06-10T05:44:38;20.00;99.90
46758;DHT22;32509;47.750;-3.396;2023-06-10T05:47:04;20.00;99.90
46758;DHT22;32509;47.750;-3.396;2023-06-10T05:49:29;20.00;99.90
46758;DHT22;32509;47.750;-3.396;2023-06-10T05:51:55;20.00;99.90
46758;DHT22;32509;47.750;-3.396;2023-06-10T05:54:23;20.00;99.90
46758;DHT22;32509;47.750;-3.396;2023-06-10T05:56:48;20.00;99.90
46758;DHT22;32509;47.750;-3.396;2023-06-10T05:59:14;20.00;99.90
46758;DHT22;32509;47.750;-3.396;2023-06-10T06:01:40;20.00;99.90
46758;DHT22;32509;47.750;-3.396;2023-06-10T06:04:05;20.10;99.90
46758;DHT22;32509;47.750;-3.396;2023-06-10T06:06:31;20.10;99.90
46758;DHT22;32509;47.750;-3.396;2023-06-10T06:08:57;20.10;99.90
46758;DHT22;32509;47.750;-3.396;2023-06-10T06:11:23;20.10;99.90
46758;DHT22;32509;47.750;-3.396;2023-06-10T06:13:49;20.10;99.90
46758;DHT22;32509;47.750;-3.396;2023-06-10T06:16:15;20.10;99.90
46758;DHT22;32509;47.750;-3.396;2023-06-10T06:18:42;20.10;99.90
46758;DHT22;32509;47.750;-3.396;2023-06-10T06:21:08;20.10;99.90
46758;DHT22;32509;47.750;-3.396;2023-06-10T06:23:33;20.10;99.90
46758;DHT22;32509;47.750;-3.396;2023-06-10T06:25:59;20.10;99.90
46758;DHT22;32509;47.750;-3.396;2023-06-10T06:28:25;20.20;99.90
46758;DHT22;32509;47.750;-3.396;2023-06-10T06:30:55;20.10;99.90
46758;DHT22;32509;47.750;-3.396;2023-06-10T06:33:21;20.10;99.90
46758;DHT22;32509;47.750;-3.396;2023-06-10T06:35:46;20.10;99.90
46758;DHT22;32509;47.750;-3.396;2023-06-10T06:38:12;20.20;99.90
46758;DHT22;32509;47.750;-3.396;2023-06-10T06:40:38;20.10;99.90
46758;DHT22;32509;47.750;-3.396;2023-06-10T06:43:04;20.10;99.90
46758;DHT22;32509;47.750;-3.396;2023-06-10T06:45:29;20.20;99.90
46758;DHT22;32509;47.750;-3.396;2023-06-10T06:47:55;20.10;99.90
46758;DHT22;32509;47.750;-3.396;2023-06-10T06:50:21;20.10;99.90
46758;DHT22;32509;47.750;-3.396;2023-06-10T06:52:47;20.10;99.90
46758;DHT22;32509;47.750;-3.396;2023-06-10T06:55:13;20.20;99.90
46758;DHT22;32509;47.750;-3.396;2023-06-10T06:57:38;20.20;99.90
46758;DHT22;32509;47.750;-3.396;2023-06-10T07:00:05;20.20;99.90
46758;DHT22;32509;47.750;-3.396;2023-06-10T07:02:31;20.30;99.90
46758;DHT22;32509;47.750;-3.396;2023-06-10T07:04:58;20.20;99.90
46758;DHT22;32509;47.750;-3.396;2023-06-10T07:07:24;20.20;99.90
46758;DHT22;32509;47.750;-3.396;2023-06-10T07:09:50;20.30;99.90
46758;DHT22;32509;47.750;-3.396;2023-06-10T07:12:16;20.20;99.90
46758;DHT22;32509;47.750;-3.396;2023-06-10T07:14:43;20.30;99.90
46758;DHT22;32509;47.750;-3.396;2023-06-10T07:17:09;20.30;99.90
46758;DHT22;32509;47.750;-3.396;2023-06-10T07:19:34;20.30;99.90
46758;DHT22;32509;47.750;-3.396;2023-06-10T07:22:00;20.30;99.90
46758;DHT22;32509;47.750;-3.396;2023-06-10T07:24:26;20.30;99.90
46758;DHT22;32509;47.750;-3.396;2023-06-10T07:26:52;20.40;99.90
46758;DHT22;32509;47.750;-3.396;2023-06-10T07:29:17;20.40;99.90
46758;DHT22;32509;47.750;-3.396;2023-06-10T07:31:43;20.40;99.90
46758;DHT22;32509;47.750;-3.396;2023-06-10T07:34:09;20.50;99.90
46758;DHT22;32509;47.750;-3.396;2023-06-10T07:36:34;20.50;99.90
46758;DHT22;32509;47.750;-3.396;2023-06-10T07:39:00;20.50;99.90
46758;DHT22;32509;47.750;-3.396;2023-06-10T07:41:26;20.50;99.90
46758;DHT22;32509;47.750;-3.396;2023-06-10T07:43:55;20.50;99.90
46758;DHT22;32509;47.750;-3.396;2023-06-10T07:46:22;20.50;99.90
46758;DHT22;32509;47.750;-3.396;2023-06-10T07:48:48;20.50;99.90
46758;DHT22;32509;47.750;-3.396;2023-06-10T07:51:18;20.50;99.90
46758;DHT22;32509;47.750;-3.396;2023-06-10T07:53:43;20.60;99.90
46758;DHT22;32509;47.750;-3.396;2023-06-10T07:56:09;20.60;99.90
46758;DHT22;32509;47.750;-3.396;2023-06-10T07:58:35;20.60;99.90
46758;DHT22;32509;47.750;-3.396;2023-06-10T08:01:01;20.60;99.90
46758;DHT22;32509;47.750;-3.396;2023-06-10T08:03:26;20.70;99.90
46758;DHT22;32509;47.750;-3.396;2023-06-10T08:05:52;20.60;99.90
46758;DHT22;32509;47.750;-3.396;2023-06-10T08:08:18;20.70;99.90
46758;DHT22;32509;47.750;-3.396;2023-06-10T08:10:43;20.70;99.90
46758;DHT22;32509;47.750;-3.396;2023-06-10T08:13:09;20.80;99.90
46758;DHT22;32509;47.750;-3.396;2023-06-10T08:15:35;20.80;99.90
46758;DHT22;32509;47.750;-3.396;2023-06-10T08:18:01;20.80;99.90
46758;DHT22;32509;47.750;-3.396;2023-06-10T08:20:26;20.80;99.90
46758;DHT22;32509;47.750;-3.396;2023-06-10T08:22:52;20.80;99.90
46758;DHT22;32509;47.750;-3.396;2023-06-10T08:25:18;20.80;99.90
46758;DHT22;32509;47.750;-3.396;2023-06-10T08:27:44;20.90;99.90
46758;DHT22;32509;47.750;-3.396;2023-06-10T08:30:10;20.90;99.90
46758;DHT22;32509;47.750;-3.396;2023-06-10T08:32:36;21.00;99.90
46758;DHT22;32509;47.750;-3.396;2023-06-10T08:35:02;21.00;99.90
46758;DHT22;32509;47.750;-3.396;2023-06-10T08:37:29;21.00;99.90
46758;DHT22;32509;47.750;-3.396;2023-06-10T08:39:55;21.00;99.90
46758;DHT22;32509;47.750;-3.396;2023-06-10T08:42:34;21.00;99.90
46758;DHT22;32509;47.750;-3.396;2023-06-10T08:45:02;21.00;99.90
46758;DHT22;32509;47.750;-3.396;2023-06-10T08:47:30;21.10;99.90
46758;DHT22;32509;47.750;-3.396;2023-06-10T08:50:03;21.10;99.90
46758;DHT22;32509;47.750;-3.396;2023-06-10T08:52:35;21.10;99.90
46758;DHT22;32509;47.750;-3.396;2023-06-10T08:55:11;21.10;99.90
46758;DHT22;32509;47.750;-3.396;2023-06-10T08:57:37;21.20;99.90
46758;DHT22;32509;47.750;-3.396;2023-06-10T09:00:05;21.20;99.90
46758;DHT22;32509;47.750;-3.396;2023-06-10T09:02:32;21.20;99.90
46758;DHT22;32509;47.750;-3.396;2023-06-10T09:05:01;21.10;99.90
46758;DHT22;32509;47.750;-3.396;2023-06-10T09:07:29;21.10;99.90
46758;DHT22;32509;47.750;-3.396;2023-06-10T09:09:57;21.20;99.90
46758;DHT22;32509;47.750;-3.396;2023-06-10T09:12:24;21.20;99.90
46758;DHT22;32509;47.750;-3.396;2023-06-10T09:14:50;21.20;99.90
46758;DHT22;32509;47.750;-3.396;2023-06-10T09:17:17;21.20;99.90
46758;DHT22;32509;47.750;-3.396;2023-06-10T09:19:44;21.30;99.90
46758;DHT22;32509;47.750;-3.396;2023-06-10T09:22:11;21.30;99.90
46758;DHT22;32509;47.750;-3.396;2023-06-10T09:24:37;21.30;99.90
46758;DHT22;32509;47.750;-3.396;2023-06-10T09:27:07;21.30;99.90
46758;DHT22;32509;47.750;-3.396;2023-06-10T09:29:51;21.30;99.90
46758;DHT22;32509;47.750;-3.396;2023-06-10T09:32:18;21.40;99.90
46758;DHT22;32509;47.750;-3.396;2023-06-10T09:34:44;21.40;99.90
46758;DHT22;32509;47.750;-3.396;2023-06-10T09:37:10;21.40;99.90
46758;DHT22;32509;47.750;-3.396;2023-06-10T09:39:38;21.40;99.90
46758;DHT22;32509;47.750;-3.396;2023-06-10T09:42:19;21.50;99.90
46758;DHT22;32509;47.750;-3.396;2023-06-10T09:44:51;21.50;99.90
46758;DHT22;32509;47.750;-3.396;2023-06-10T09:47:21;21.50;99.90
46758;DHT22;32509;47.750;-3.396;2023-06-10T09:49:48;21.60;99.90
46758;DHT22;32509;47.750;-3.396;2023-06-10T09:52:21;21.60;99.90
46758;DHT22;32509;47.750;-3.396;2023-06-10T09:54:47;21.60;99.90
46758;DHT22;32509;47.750;-3.396;2023-06-10T09:57:13;21.60;99.90
46758;DHT22;32509;47.750;-3.396;2023-06-10T09:59:40;21.60;99.90
46758;DHT22;32509;47.750;-3.396;2023-06-10T10:02:06;21.60;99.90
46758;DHT22;32509;47.750;-3.396;2023-06-10T10:04:35;21.60;99.90
46758;DHT22;32509;47.750;-3.396;2023-06-10T10:07:02;21.60;99.90
46758;DHT22;32509;47.750;-3.396;2023-06-10T10:09:28;21.60;99.90
46758;DHT22;32509;47.750;-3.396;2023-06-10T10:11:54;21.60;99.90
46758;DHT22;32509;47.750;-3.396;2023-06-10T10:14:21;21.50;99.90
46758;DHT22;32509;47.750;-3.396;2023-06-10T10:16:47;21.60;99.90
46758;DHT22;32509;47.750;-3.396;2023-06-10T10:19:25;21.70;99.90
46758;DHT22;32509;47.750;-3.396;2023-06-10T10:21:55;21.60;99.90
46758;DHT22;32509;47.750;-3.396;2023-06-10T10:24:33;21.70;99.90
46758;DHT22;32509;47.750;-3.396;2023-06-10T10:27:01;21.70;99.90
46758;DHT22;32509;47.750;-3.396;2023-06-10T10:29:36;21.80;99.90
46758;DHT22;32509;47.750;-3.396;2023-06-10T10:32:03;21.90;99.90
46758;DHT22;32509;47.750;-3.396;2023-06-10T10:34:54;21.90;99.90
46758;DHT22;32509;47.750;-3.396;2023-06-10T10:37:22;21.80;99.90
46758;DHT22;32509;47.750;-3.396;2023-06-10T10:39:48;21.90;99.90
46758;DHT22;32509;47.750;-3.396;2023-06-10T10:42:16;21.90;99.90
46758;DHT22;32509;47.750;-3.396;2023-06-10T10:44:43;21.90;99.90
46758;DHT22;32509;47.750;-3.396;2023-06-10T10:47:09;21.90;99.90
46758;DHT22;32509;47.750;-3.396;2023-06-10T10:49:37;22.00;99.90
46758;DHT22;32509;47.750;-3.396;2023-06-10T10:52:04;22.10;99.90
46758;DHT22;32509;47.750;-3.396;2023-06-10T10:54:34;22.10;99.90
46758;DHT22;32509;47.750;-3.396;2023-06-10T10:57:13;22.20;99.90
46758;DHT22;32509;47.750;-3.396;2023-06-10T11:02:16;22.20;99.90
46758;DHT22;32509;47.750;-3.396;2023-06-10T11:04:48;22.20;99.90
46758;DHT22;32509;47.750;-3.396;2023-06-10T11:07:15;22.30;99.90
46758;DHT22;32509;47.750;-3.396;2023-06-10T11:10:07;22.40;99.90
46758;DHT22;32509;47.750;-3.396;2023-06-10T11:15:19;22.60;99.90
46758;DHT22;32509;47.750;-3.396;2023-06-10T11:18:11;22.50;99.90
46758;DHT22;32509;47.750;-3.396;2023-06-10T11:31:29;22.40;99.90
46758;DHT22;32509;47.750;-3.396;2023-06-10T11:33:59;22.40;99.90
46758;DHT22;32509;47.750;-3.396;2023-06-10T11:36:27;22.40;99.90
46758;DHT22;32509;47.750;-3.396;2023-06-10T11:39:00;22.50;99.90
46758;DHT22;32509;47.750;-3.396;2023-06-10T11:41:27;22.30;99.90
46758;DHT22;32509;47.750;-3.396;2023-06-10T11:43:55;22.40;99.90
46758;DHT22;32509;47.750;-3.396;2023-06-10T11:46:24;22.50;99.90
46758;DHT22;32509;47.750;-3.396;2023-06-10T11:48:57;22.50;99.90
46758;DHT22;32509;47.750;-3.396;2023-06-10T11:51:46;22.50;99.90
46758;DHT22;32509;47.750;-3.396;2023-06-10T11:54:15;22.40;99.90
46758;DHT22;32509;47.750;-3.396;2023-06-10T11:56:41;22.50;99.90
46758;DHT22;32509;47.750;-3.396;2023-06-10T11:59:07;22.50;99.90
46758;DHT22;32509;47.750;-3.396;2023-06-10T12:01:35;22.50;99.90
46758;DHT22;32509;47.750;-3.396;2023-06-10T12:04:09;22.60;99.90
46758;DHT22;32509;47.750;-3.396;2023-06-10T12:06:44;22.70;99.90
46758;DHT22;32509;47.750;-3.396;2023-06-10T12:09:21;22.60;99.90
46758;DHT22;32509;47.750;-3.396;2023-06-10T12:19:58;22.80;99.90
46758;DHT22;32509;47.750;-3.396;2023-06-10T12:22:23;22.70;99.90
46758;DHT22;32509;47.750;-3.396;2023-06-10T12:25:01;22.60;99.90
46758;DHT22;32509;47.750;-3.396;2023-06-10T12:27:32;22.70;99.90
46758;DHT22;32509;47.750;-3.396;2023-06-10T12:30:03;22.70;99.90
46758;DHT22;32509;47.750;-3.396;2023-06-10T12:32:43;22.80;99.90
46758;DHT22;32509;47.750;-3.396;2023-06-10T12:35:10;22.80;99.90
46758;DHT22;32509;47.750;-3.396;2023-06-10T12:37:37;22.80;99.90
46758;DHT22;32509;47.750;-3.396;2023-06-10T12:40:05;22.80;99.90
46758;DHT22;32509;47.750;-3.396;2023-06-10T12:42:32;22.80;99.90
46758;DHT22;32509;47.750;-3.396;2023-06-10T12:45:00;22.80;99.90
46758;DHT22;32509;47.750;-3.396;2023-06-10T12:47:44;22.80;99.90
46758;DHT22;32509;47.750;-3.396;2023-06-10T12:50:10;22.90;99.90
46758;DHT22;32509;47.750;-3.396;2023-06-10T12:52:37;22.80;99.90
46758;DHT22;32509;47.750;-3.396;2023-06-10T12:55:03;22.70;99.90
46758;DHT22;32509;47.750;-3.396;2023-06-10T12:57:29;22.70;99.90
46758;DHT22;32509;47.750;-3.396;2023-06-10T12:59:56;22.70;99.90
46758;DHT22;32509;47.750;-3.396;2023-06-10T13:02:28;22.70;99.90
46758;DHT22;32509;47.750;-3.396;2023-06-10T13:04:54;22.80;99.90
46758;DHT22;32509;47.750;-3.396;2023-06-10T13:07:21;22.80;99.90
46758;DHT22;32509;47.750;-3.396;2023-06-10T13:09:48;22.80;99.90
46758;DHT22;32509;47.750;-3.396;2023-06-10T13:12:14;22.80;99.90
46758;DHT22;32509;47.750;-3.396;2023-06-10T13:14:40;22.80;99.90
46758;DHT22;32509;47.750;-3.396;2023-06-10T13:17:06;22.80;99.90
46758;DHT22;32509;47.750;-3.396;2023-06-10T13:19:32;22.80;99.90
46758;DHT22;32509;47.750;-3.396;2023-06-10T13:21:58;22.90;99.90
46758;DHT22;32509;47.750;-3.396;2023-06-10T13:24:24;22.80;99.90
46758;DHT22;32509;47.750;-3.396;2023-06-10T13:26:50;22.70;99.90
46758;DHT22;32509;47.750;-3.396;2023-06-10T13:29:16;22.70;99.90
46758;DHT22;32509;47.750;-3.396;2023-06-10T13:31:41;22.70;99.90
46758;DHT22;32509;47.750;-3.396;2023-06-10T13:34:08;22.70;99.90
46758;DHT22;32509;47.750;-3.396;2023-06-10T13:36:33;22.60;99.90
46758;DHT22;32509;47.750;-3.396;2023-06-10T13:38:59;22.60;99.90
46758;DHT22;32509;47.750;-3.396;2023-06-10T13:41:25;22.70;99.90
46758;DHT22;32509;47.750;-3.396;2023-06-10T13:43:54;22.70;99.90
46758;DHT22;32509;47.750;-3.396;2023-06-10T13:46:20;22.70;99.90
46758;DHT22;32509;47.750;-3.396;2023-06-10T13:48:47;22.70;99.90
46758;DHT22;32509;47.750;-3.396;2023-06-10T13:51:13;22.70;99.90
46758;DHT22;32509;47.750;-3.396;2023-06-10T13:53:39;22.70;99.90
46758;DHT22;32509;47.750;-3.396;2023-06-10T13:56:04;22.70;99.90
46758;DHT22;32509;47.750;-3.396;2023-06-10T13:58:30;22.70;99.90
46758;DHT22;32509;47.750;-3.396;2023-06-10T14:00:57;22.80;99.90
46758;DHT22;32509;47.750;-3.396;2023-06-10T14:03:24;22.70;99.90
46758;DHT22;32509;47.750;-3.396;2023-06-10T14:05:49;22.70;99.90
46758;DHT22;32509;47.750;-3.396;2023-06-10T14:08:15;22.70;99.90
46758;DHT22;32509;47.750;-3.396;2023-06-10T14:10:41;22.60;99.90
46758;DHT22;32509;47.750;-3.396;2023-06-10T14:13:07;22.60;99.90
46758;DHT22;32509;47.750;-3.396;2023-06-10T14:15:32;22.50;99.90
46758;DHT22;32509;47.750;-3.396;2023-06-10T14:17:58;22.50;99.90
46758;DHT22;32509;47.750;-3.396;2023-06-10T14:20:24;22.50;99.90
46758;DHT22;32509;47.750;-3.396;2023-06-10T14:22:52;22.50;99.90
46758;DHT22;32509;47.750;-3.396;2023-06-10T14:25:18;22.50;99.90
46758;DHT22;32509;47.750;-3.396;2023-06-10T14:27:43;22.50;99.90
46758;DHT22;32509;47.750;-3.396;2023-06-10T14:30:09;22.40;99.90
46758;DHT22;32509;47.750;-3.396;2023-06-10T14:32:36;22.40;99.90
46758;DHT22;32509;47.750;-3.396;2023-06-10T14:35:02;22.40;99.90
46758;DHT22;32509;47.750;-3.396;2023-06-10T14:37:28;22.40;99.90
46758;DHT22;32509;47.750;-3.396;2023-06-10T14:39:54;22.40;99.90
46758;DHT22;32509;47.750;-3.396;2023-06-10T14:42:19;22.30;99.90
46758;DHT22;32509;47.750;-3.396;2023-06-10T14:44:45;22.30;99.90
46758;DHT22;32509;47.750;-3.396;2023-06-10T14:47:11;22.30;99.90
46758;DHT22;32509;47.750;-3.396;2023-06-10T14:49:37;22.20;99.90
46758;DHT22;32509;47.750;-3.396;2023-06-10T14:52:02;22.20;99.90
46758;DHT22;32509;47.750;-3.396;2023-06-10T14:54:28;22.10;99.90
46758;DHT22;32509;47.750;-3.396;2023-06-10T14:56:54;22.10;99.90
46758;DHT22;32509;47.750;-3.396;2023-06-10T14:59:20;22.10;99.90
46758;DHT22;32509;47.750;-3.396;2023-06-10T15:01:45;22.10;99.90
46758;DHT22;32509;47.750;-3.396;2023-06-10T15:04:11;22.20;99.90
46758;DHT22;32509;47.750;-3.396;2023-06-10T15:06:37;22.20;99.90
46758;DHT22;32509;47.750;-3.396;2023-06-10T15:09:03;22.20;99.90
46758;DHT22;32509;47.750;-3.396;2023-06-10T15:11:29;22.20;99.90
46758;DHT22;32509;47.750;-3.396;2023-06-10T15:13:55;22.20;99.90
46758;DHT22;32509;47.750;-3.396;2023-06-10T15:16:21;22.20;99.90
46758;DHT22;32509;47.750;-3.396;2023-06-10T15:18:47;22.20;99.90
46758;DHT22;32509;47.750;-3.396;2023-06-10T15:21:12;22.20;99.90
46758;DHT22;32509;47.750;-3.396;2023-06-10T15:23:39;22.20;99.90
46758;DHT22;32509;47.750;-3.396;2023-06-10T15:26:05;22.20;99.90
46758;DHT22;32509;47.750;-3.396;2023-06-10T15:28:31;22.10;99.90
46758;DHT22;32509;47.750;-3.396;2023-06-10T15:30:56;22.00;99.90
46758;DHT22;32509;47.750;-3.396;2023-06-10T15:33:22;22.00;99.90
46758;DHT22;32509;47.750;-3.396;2023-06-10T15:35:48;22.00;99.90
46758;DHT22;32509;47.750;-3.396;2023-06-10T15:38:13;22.10;99.90
46758;DHT22;32509;47.750;-3.396;2023-06-10T15:40:42;22.10;99.90
46758;DHT22;32509;47.750;-3.396;2023-06-10T15:43:08;22.10;99.90
46758;DHT22;32509;47.750;-3.396;2023-06-10T15:45:34;22.10;99.90